createdAt,value
2018-10-19T00:00:08.916Z,98402.06
2018-10-19T00:00:40.514Z,98403.34
2018-10-19T00:01:12.094Z,98404.19
2018-10-19T00:01:43.694Z,98405.96
2018-10-19T00:02:15.298Z,98406.02
2018-10-19T00:02:46.889Z,98406.02
2018-10-19T00:03:18.514Z,98407.75
2018-10-19T00:03:50.104Z,98409.09
2018-10-19T00:04:21.724Z,98405.68
2018-10-19T00:04:53.332Z,98406.13
2018-10-19T00:05:24.925Z,98402.75
2018-10-19T00:05:56.528Z,98408.73
2018-10-19T00:06:28.112Z,98405.33
2018-10-19T00:06:59.700Z,98406.61
2018-10-19T00:07:31.304Z,98400.67
2018-10-19T00:08:02.914Z,98400.69
2018-10-19T00:08:34.518Z,98402.46
2018-10-19T00:09:06.156Z,98399.89
2018-10-19T00:09:37.748Z,98405.45
2018-10-19T00:10:09.323Z,98402.09
2018-10-19T00:10:40.926Z,98402.09
2018-10-19T00:11:12.517Z,98405.93
2018-10-19T00:11:44.129Z,98402.11
2018-10-19T00:12:15.730Z,98401.67
2018-10-19T00:12:47.405Z,98401.26
2018-10-19T00:13:18.956Z,98399.16
2018-10-19T00:13:50.544Z,98403.88
2018-10-19T00:14:22.155Z,98402.22
2018-10-19T00:14:53.776Z,98404.78
2018-10-19T00:15:25.367Z,98401.37
2018-10-19T00:15:56.965Z,98394.17
2018-10-19T00:16:28.556Z,98368.15
2018-10-19T00:17:00.152Z,98401.02
2018-10-19T00:17:31.776Z,98401.88
2018-10-19T00:18:03.364Z,98392.52
2018-10-19T00:18:34.965Z,98399.78
2018-10-19T00:19:06.570Z,98395.95
2018-10-19T00:19:38.179Z,98389.98
2018-10-19T00:20:09.768Z,98397.24
2018-10-19T00:20:41.347Z,98392.12
2018-10-19T00:21:13.005Z,98395.16
2018-10-19T00:21:44.585Z,98395.59
2018-10-19T00:22:16.176Z,98395.59
2018-10-19T00:22:47.773Z,98395.59
2018-10-19T00:23:19.361Z,98394.33
2018-10-19T00:23:50.957Z,98393.94
2018-10-19T00:24:22.582Z,98396.09
2018-10-19T00:24:54.200Z,98390.11
2018-10-19T00:25:25.788Z,98388.88
2018-10-19T00:25:57.384Z,98392.72
2018-10-19T00:26:28.980Z,98388.02
2018-10-19T00:27:00.613Z,98393.15
2018-10-19T00:27:32.177Z,98388.47
2018-10-19T00:28:03.980Z,98385.10
2018-10-19T00:28:35.560Z,98389.80
2018-10-19T00:29:07.162Z,98386.81
2018-10-19T00:29:38.789Z,98391.09
2018-10-19T00:30:10.400Z,98388.54
2018-10-19T00:30:41.998Z,98394.13
2018-10-19T00:31:13.607Z,98392.84
2018-10-19T00:31:45.197Z,98391.58
2018-10-19T00:32:16.788Z,98392.08
2018-10-19T00:32:48.391Z,98395.00
2018-10-19T00:33:19.984Z,98396.70
2018-10-19T00:33:51.573Z,98396.71
2018-10-19T00:34:23.155Z,98392.05
2018-10-19T00:34:54.775Z,98394.63
2018-10-19T00:35:26.402Z,98398.48
2018-10-19T00:35:58.006Z,98394.21
2018-10-19T00:36:29.600Z,98392.50
2018-10-19T00:37:01.203Z,98393.83
2018-10-19T00:37:32.806Z,98398.09
2018-10-19T00:38:04.419Z,98398.10
2018-10-19T00:38:36.021Z,98395.97
2018-10-19T00:39:07.688Z,98392.13
2018-10-19T00:39:39.285Z,98395.97
2018-10-19T00:40:10.882Z,98395.97
2018-10-19T00:40:42.486Z,98397.67
2018-10-19T00:41:14.156Z,98386.72
2018-10-19T00:41:45.683Z,98395.95
2018-10-19T00:42:17.296Z,98387.16
2018-10-19T00:42:48.898Z,98395.56
2018-10-19T00:43:20.503Z,98395.57
2018-10-19T00:43:52.087Z,98395.58
2018-10-19T00:44:23.690Z,98397.30
2018-10-19T00:44:55.335Z,98396.91
2018-10-19T00:45:26.942Z,98396.06
2018-10-19T00:45:58.536Z,98393.51
2018-10-19T00:46:30.136Z,98390.98
2018-10-19T00:47:01.824Z,98398.68
2018-10-19T00:47:33.369Z,98395.27
2018-10-19T00:48:04.960Z,98396.12
2018-10-19T00:48:36.551Z,98392.71
2018-10-19T00:49:08.152Z,98390.98
2018-10-19T00:49:39.773Z,98392.22
2018-10-19T00:50:11.473Z,98390.50
2018-10-19T00:50:43.050Z,98389.60
2018-10-19T00:51:14.656Z,98395.15
2018-10-19T00:51:46.274Z,98388.31
2018-10-19T00:52:17.882Z,98389.16
2018-10-19T00:52:49.462Z,98390.83
2018-10-19T00:53:21.051Z,98389.12
2018-10-19T00:53:52.655Z,98390.87
2018-10-19T00:54:24.244Z,98384.00
2018-10-19T00:54:55.864Z,98384.04
2018-10-19T00:55:27.465Z,98380.64
2018-10-19T00:55:59.054Z,98387.42
2018-10-19T00:56:30.653Z,98382.72
2018-10-19T00:57:02.287Z,98385.32
2018-10-19T00:57:33.884Z,98383.61
2018-10-19T00:58:05.476Z,98387.03
2018-10-19T00:58:37.072Z,98389.17
2018-10-19T00:59:08.704Z,98385.34
2018-10-19T00:59:40.284Z,98384.91
2018-10-19T01:00:11.900Z,98385.34
2018-10-19T01:00:43.507Z,98385.33
2018-10-19T01:01:15.105Z,98384.91
2018-10-19T01:01:46.710Z,98383.20
2018-10-19T01:02:18.308Z,98381.11
2018-10-19T01:02:49.900Z,98378.98
2018-10-19T01:03:21.489Z,98402.89
2018-10-19T01:03:53.075Z,98378.14
2018-10-19T01:04:24.660Z,98377.28
2018-10-19T01:04:56.346Z,98375.16
2018-10-19T01:05:27.906Z,98379.42
2018-10-19T01:05:59.520Z,98349.06
2018-10-19T01:06:31.117Z,98376.87
2018-10-19T01:07:02.714Z,98377.30
2018-10-19T01:07:34.317Z,98379.42
2018-10-19T01:08:05.896Z,98376.02
2018-10-19T01:08:37.489Z,98376.48
2018-10-19T01:09:09.116Z,98375.20
2018-10-19T01:09:40.707Z,98378.58
2018-10-19T01:10:12.333Z,98380.33
2018-10-19T01:10:43.947Z,98379.90
2018-10-19T01:11:15.602Z,98375.64
2018-10-19T01:11:47.170Z,98382.47
2018-10-19T01:12:50.041Z,98381.62
2018-10-19T01:13:21.647Z,98327.33
2018-10-19T01:13:53.240Z,98379.16
2018-10-19T01:14:24.833Z,98378.76
2018-10-19T01:14:56.427Z,98376.63
2018-10-19T01:15:28.076Z,98379.66
2018-10-19T01:15:59.666Z,98378.38
2018-10-19T01:16:31.323Z,98383.94
2018-10-19T01:17:02.971Z,98387.78
2018-10-19T01:17:34.524Z,98385.65
2018-10-19T01:18:06.105Z,98380.95
2018-10-19T01:18:37.705Z,98377.60
2018-10-19T01:19:09.307Z,98382.70
2018-10-19T01:19:40.923Z,98379.73
2018-10-19T01:20:12.555Z,98387.42
2018-10-19T01:20:44.145Z,98381.91
2018-10-19T01:21:15.862Z,98382.34
2018-10-19T01:21:47.372Z,98382.78
2018-10-19T01:22:18.956Z,98389.22
2018-10-19T01:22:50.535Z,98382.83
2018-10-19T01:23:22.128Z,98378.56
2018-10-19T01:23:53.704Z,98385.41
2018-10-19T01:24:25.315Z,98381.17
2018-10-19T01:24:56.922Z,98384.17
2018-10-19T01:25:28.545Z,98386.32
2018-10-19T01:26:00.146Z,98390.58
2018-10-19T01:26:31.740Z,98384.61
2018-10-19T01:27:03.402Z,98382.09
2018-10-19T01:27:34.969Z,98384.66
2018-10-19T01:28:06.570Z,98391.07
2018-10-19T01:28:38.164Z,98389.42
2018-10-19T01:29:09.810Z,98389.84
2018-10-19T01:29:41.375Z,98386.00
2018-10-19T01:30:13.028Z,98391.55
2018-10-19T01:30:44.638Z,98383.02
2018-10-19T01:31:16.228Z,98387.72
2018-10-19T01:31:47.824Z,98386.02
2018-10-19T01:32:19.417Z,98380.09
2018-10-19T01:32:51.023Z,98388.61
2018-10-19T01:33:22.602Z,98381.36
2018-10-19T01:33:54.179Z,98385.25
2018-10-19T01:34:25.765Z,98390.33
2018-10-19T01:34:57.381Z,98384.79
2018-10-19T01:35:28.964Z,98386.92
2018-10-19T01:36:00.557Z,98384.84
2018-10-19T01:36:32.158Z,98353.68
2018-10-19T01:37:03.752Z,98388.67
2018-10-19T01:37:35.360Z,98388.69
2018-10-19T01:38:06.953Z,98390.81
2018-10-19T01:38:38.545Z,98389.16
2018-10-19T01:39:10.176Z,98387.88
2018-10-19T01:39:41.736Z,98389.97
2018-10-19T01:40:13.321Z,98387.02
2018-10-19T01:40:44.927Z,98385.31
2018-10-19T01:41:16.610Z,98385.32
2018-10-19T01:41:48.161Z,98386.60
2018-10-19T01:42:19.752Z,98385.74
2018-10-19T01:42:51.355Z,98384.05
2018-10-19T01:43:22.953Z,98383.63
2018-10-19T01:43:54.534Z,98365.50
2018-10-19T01:44:26.130Z,98386.17
2018-10-19T01:44:57.772Z,98381.92
2018-10-19T01:45:29.392Z,98386.19
2018-10-19T01:46:00.981Z,98386.22
2018-10-19T01:46:32.573Z,98380.68
2018-10-19T01:47:04.241Z,98387.94
2018-10-19T01:47:35.802Z,98376.38
2018-10-19T01:48:07.406Z,98385.31
2018-10-19T01:48:38.996Z,98388.69
2018-10-19T01:49:10.605Z,98386.54
2018-10-19T01:49:42.197Z,98386.92
2018-10-19T01:50:13.797Z,98385.20
2018-10-19T01:50:45.431Z,98383.45
2018-10-19T01:51:17.052Z,98378.33
2018-10-19T01:51:48.671Z,98383.02
2018-10-19T01:52:20.261Z,98388.55
2018-10-19T01:52:51.872Z,98381.73
2018-10-19T01:53:23.487Z,98377.46
2018-10-19T01:53:55.076Z,98376.17
2018-10-19T01:54:26.673Z,98377.84
2018-10-19T01:54:58.284Z,98382.53
2018-10-19T01:55:29.942Z,98378.73
2018-10-19T01:56:01.523Z,98376.56
2018-10-19T01:56:33.125Z,98380.41
2018-10-19T01:57:04.813Z,98374.48
2018-10-19T01:57:36.375Z,98374.01
2018-10-19T01:58:07.964Z,98383.39
2018-10-19T01:58:39.566Z,98372.34
2018-10-19T01:59:11.272Z,98380.41
2018-10-19T01:59:42.783Z,98373.19
2018-10-19T02:00:14.373Z,98380.45
2018-10-19T02:00:46.010Z,98377.46
2018-10-19T02:01:17.588Z,98380.45
2018-10-19T02:01:49.176Z,98379.59
2018-10-19T02:02:20.782Z,98375.33
2018-10-19T02:02:52.390Z,98379.59
2018-10-19T02:03:23.999Z,98378.75
2018-10-19T02:03:55.611Z,98374.48
2018-10-19T02:04:27.214Z,98381.31
2018-10-19T02:04:58.842Z,98380.89
2018-10-19T02:05:30.441Z,98379.66
2018-10-19T02:06:02.065Z,98379.67
2018-10-19T02:06:33.696Z,98380.52
2018-10-19T02:07:05.298Z,98383.13
2018-10-19T02:07:36.902Z,98379.70
2018-10-19T02:08:08.506Z,98381.00
2018-10-19T02:08:40.101Z,98376.74
2018-10-19T02:09:11.719Z,98381.44
2018-10-19T02:09:43.328Z,98380.16
2018-10-19T02:10:14.934Z,98384.03
2018-10-19T02:10:46.552Z,98384.47
2018-10-19T02:11:18.141Z,98385.75
2018-10-19T02:11:49.751Z,98379.78
2018-10-19T02:12:21.344Z,98382.77
2018-10-19T02:12:52.932Z,98384.47
2018-10-19T02:13:24.529Z,98383.20
2018-10-19T02:13:56.135Z,98385.76
2018-10-19T02:14:27.746Z,98386.23
2018-10-19T02:14:59.389Z,98386.23
2018-10-19T02:15:30.988Z,98384.95
2018-10-19T02:16:02.619Z,98385.37
2018-10-19T02:16:34.209Z,98382.83
2018-10-19T02:17:05.816Z,98383.26
2018-10-19T02:17:37.417Z,98387.52
2018-10-19T02:18:09.023Z,98358.44
2018-10-19T02:18:40.624Z,98384.53
2018-10-19T02:19:12.199Z,98383.69
2018-10-19T02:19:43.782Z,98387.52
2018-10-19T02:20:15.384Z,98385.43
2018-10-19T02:20:47.033Z,98364.03
2018-10-19T02:21:18.620Z,98381.17
2018-10-19T02:21:50.222Z,98381.59
2018-10-19T02:22:21.820Z,98384.16
2018-10-19T02:22:53.436Z,98376.28
2018-10-19T02:23:25.038Z,98387.57
2018-10-19T02:23:56.632Z,98385.87
2018-10-19T02:24:28.235Z,98385.44
2018-10-19T02:24:59.839Z,98390.08
2018-10-19T02:25:31.451Z,98391.78
2018-10-19T02:26:03.106Z,98393.86
2018-10-19T02:26:34.698Z,98389.16
2018-10-19T02:27:06.308Z,98393.00
2018-10-19T02:27:37.919Z,98394.28
2018-10-19T02:28:09.522Z,98394.70
2018-10-19T02:28:41.117Z,98392.99
2018-10-19T02:29:12.837Z,98393.42
2018-10-19T02:29:44.346Z,98393.00
2018-10-19T02:30:15.937Z,98392.58
2018-10-19T02:30:47.547Z,98392.16
2018-10-19T02:31:19.164Z,98392.16
2018-10-19T02:31:50.753Z,98387.50
2018-10-19T02:32:22.368Z,98389.64
2018-10-19T02:32:54.048Z,98395.19
2018-10-19T02:33:25.622Z,98394.34
2018-10-19T02:33:57.212Z,98393.06
2018-10-19T02:34:28.818Z,98392.25
2018-10-19T02:35:00.479Z,98390.51
2018-10-19T02:35:32.063Z,98387.13
2018-10-19T02:36:03.696Z,98388.84
2018-10-19T02:36:35.288Z,98393.53
2018-10-19T02:37:06.870Z,98391.41
2018-10-19T02:37:38.582Z,98393.53
2018-10-19T02:38:10.170Z,98394.83
2018-10-19T02:38:41.757Z,98389.28
2018-10-19T02:39:13.420Z,98393.13
2018-10-19T02:39:44.973Z,98390.56
2018-10-19T02:40:16.564Z,98392.69
2018-10-19T02:40:48.166Z,98391.41
2018-10-19T02:41:19.793Z,98390.14
2018-10-19T02:41:51.401Z,98406.34
2018-10-19T02:42:22.992Z,98386.73
2018-10-19T02:42:54.596Z,98388.01
2018-10-19T02:43:26.192Z,98385.45
2018-10-19T02:43:57.784Z,98385.87
2018-10-19T02:44:29.380Z,98389.70
2018-10-19T02:45:01.019Z,98393.05
2018-10-19T02:45:32.624Z,98383.61
2018-10-19T02:46:04.231Z,98393.36
2018-10-19T02:46:35.834Z,98386.49
2018-10-19T02:47:07.493Z,98388.58
2018-10-19T02:47:39.061Z,98381.30
2018-10-19T02:48:10.643Z,98380.39
2018-10-19T02:48:42.237Z,98386.80
2018-10-19T02:49:13.819Z,98376.55
2018-10-19T02:49:45.408Z,98379.48
2018-10-19T02:50:17.001Z,98379.05
2018-10-19T02:50:48.579Z,98380.77
2018-10-19T02:51:20.395Z,98376.48
2018-10-19T02:51:51.807Z,98378.62
2018-10-19T02:52:23.396Z,98382.03
2018-10-19T02:52:54.980Z,98379.47
2018-10-19T02:53:26.580Z,98372.65
2018-10-19T02:53:58.162Z,98381.19
2018-10-19T02:54:29.768Z,98380.34
2018-10-19T02:55:01.361Z,98378.63
2018-10-19T02:55:32.966Z,98379.91
2018-10-19T02:56:04.564Z,98381.61
2018-10-19T02:56:36.190Z,98378.63
2018-10-19T02:57:07.791Z,98377.77
2018-10-19T02:57:39.395Z,98383.75
2018-10-19T02:58:11.010Z,98379.91
2018-10-19T02:58:42.590Z,98380.34
2018-10-19T02:59:14.233Z,98378.68
2018-10-19T02:59:45.832Z,98355.09
2018-10-19T03:00:17.434Z,98386.73
2018-10-19T03:00:49.041Z,98378.70
2018-10-19T03:01:20.668Z,98386.43
2018-10-19T03:01:52.279Z,98381.84
2018-10-19T03:02:23.907Z,98381.06
2018-10-19T03:02:55.507Z,98389.70
2018-10-19T03:03:27.116Z,98385.97
2018-10-19T03:03:58.723Z,98389.44
2018-10-19T03:04:30.329Z,98387.73
2018-10-19T03:05:02.005Z,98357.39
2018-10-19T03:05:33.594Z,98389.02
2018-10-19T03:06:05.186Z,98390.73
2018-10-19T03:06:36.838Z,98389.02
2018-10-19T03:07:08.427Z,98386.45
2018-10-19T03:07:40.021Z,98386.84
2018-10-19T03:08:11.627Z,98380.88
2018-10-19T03:08:43.218Z,98391.52
2018-10-19T03:09:14.859Z,98385.12
2018-10-19T03:09:46.455Z,98382.09
2018-10-19T03:10:18.035Z,98359.94
2018-10-19T03:10:49.628Z,98383.84
2018-10-19T03:11:21.275Z,98378.30
2018-10-19T03:11:52.912Z,98374.90
2018-10-19T03:12:24.523Z,98381.73
2018-10-19T03:12:56.130Z,98380.05
2018-10-19T03:13:27.721Z,98375.00
2018-10-19T03:13:59.316Z,98376.61
2018-10-19T03:14:30.920Z,98377.50
2018-10-19T03:15:02.559Z,98384.34
2018-10-19T03:15:34.153Z,98349.77
2018-10-19T03:16:05.750Z,98383.06
2018-10-19T03:16:37.355Z,98382.64
2018-10-19T03:17:08.986Z,98386.09
2018-10-19T03:17:40.573Z,98382.26
2018-10-19T03:18:12.178Z,98380.12
2018-10-19T03:18:43.786Z,98377.98
2018-10-19T03:19:15.376Z,98380.98
2018-10-19T03:19:46.984Z,98383.96
2018-10-19T03:20:18.589Z,98380.54
2018-10-19T03:20:50.184Z,98378.37
2018-10-19T03:21:21.762Z,98380.05
2018-10-19T03:21:53.376Z,98380.00
2018-10-19T03:22:24.959Z,98385.94
2018-10-19T03:22:56.592Z,98378.67
2018-10-19T03:23:28.177Z,98382.94
2018-10-19T03:23:59.773Z,98383.36
2018-10-19T03:24:31.368Z,98382.08
2018-10-19T03:25:02.972Z,98385.87
2018-10-19T03:25:34.584Z,98384.17
2018-10-19T03:26:06.199Z,98389.27
2018-10-19T03:26:38.826Z,98384.58
2018-10-19T03:27:10.465Z,98386.23
2018-10-19T03:27:42.035Z,98381.97
2018-10-19T03:28:13.624Z,98386.23
2018-10-19T03:28:45.219Z,98389.23
2018-10-19T03:29:16.824Z,98385.81
2018-10-19T03:29:48.446Z,98382.45
2018-10-19T03:30:20.034Z,98385.39
2018-10-19T03:30:51.662Z,98389.65
2018-10-19T03:31:23.247Z,98389.65
2018-10-19T03:31:54.822Z,98387.95
2018-10-19T03:32:26.413Z,98387.09
2018-10-19T03:32:58.027Z,98382.81
2018-10-19T03:33:29.625Z,98384.95
2018-10-19T03:34:01.232Z,98384.97
2018-10-19T03:34:32.825Z,98382.87
2018-10-19T03:35:04.464Z,98381.59
2018-10-19T03:35:36.048Z,98378.56
2018-10-19T03:36:07.626Z,98383.72
2018-10-19T03:36:39.253Z,98378.61
2018-10-19T03:37:10.844Z,98381.60
2018-10-19T03:37:42.437Z,98378.19
2018-10-19T03:38:14.047Z,98380.70
2018-10-19T03:38:45.656Z,98376.00
2018-10-19T03:39:17.372Z,98382.40
2018-10-19T03:39:48.880Z,98385.37
2018-10-19T03:40:20.468Z,98382.39
2018-10-19T03:40:52.062Z,98384.09
2018-10-19T03:41:23.656Z,98387.89
2018-10-19T03:41:55.248Z,98381.11
2018-10-19T03:42:26.840Z,98381.96
2018-10-19T03:42:58.437Z,98381.97
2018-10-19T03:43:30.042Z,98355.45
2018-10-19T03:44:01.646Z,98379.84
2018-10-19T03:44:33.255Z,98381.97
2018-10-19T03:45:04.913Z,98378.14
2018-10-19T03:45:36.500Z,98382.02
2018-10-19T03:46:08.102Z,98380.31
2018-10-19T03:46:39.705Z,98383.30
2018-10-19T03:47:11.335Z,98385.85
2018-10-19T03:47:42.937Z,98379.03
2018-10-19T03:48:14.540Z,98379.03
2018-10-19T03:48:46.136Z,98379.45
2018-10-19T03:49:17.813Z,98382.40
2018-10-19T03:49:49.335Z,98379.84
2018-10-19T03:50:20.930Z,98379.41
2018-10-19T03:50:52.511Z,98376.91
2018-10-19T03:51:24.109Z,98382.88
2018-10-19T03:51:55.720Z,98378.62
2018-10-19T03:52:27.319Z,98379.05
2018-10-19T03:52:58.927Z,98377.34
2018-10-19T03:53:30.553Z,98377.77
2018-10-19T03:54:02.159Z,98377.81
2018-10-19T03:54:33.772Z,98379.09
2018-10-19T03:55:05.375Z,98376.12
2018-10-19T03:55:36.978Z,98375.69
2018-10-19T03:56:08.572Z,98371.00
2018-10-19T03:56:40.180Z,98377.38
2018-10-19T03:57:11.873Z,98376.92
2018-10-19T03:57:43.429Z,98376.48
2018-10-19T03:58:15.037Z,98376.48
2018-10-19T03:58:46.629Z,98373.92
2018-10-19T03:59:18.300Z,98375.20
2018-10-19T03:59:49.835Z,98379.46
2018-10-19T04:00:21.416Z,98377.77
2018-10-19T04:00:53.008Z,98375.64
2018-10-19T04:01:24.626Z,98373.94
2018-10-19T04:01:56.255Z,98371.42
2018-10-19T04:02:27.848Z,98372.28
2018-10-19T04:02:59.497Z,98371.43
2018-10-19T04:03:31.128Z,98372.28
2018-10-19T04:04:02.729Z,98376.16
2018-10-19T04:04:34.348Z,98375.31
2018-10-19T04:05:05.972Z,98372.76
2018-10-19T04:05:37.556Z,98376.60
2018-10-19T04:06:09.148Z,98377.89
2018-10-19T04:06:40.745Z,98376.22
2018-10-19T04:07:12.375Z,98376.65
2018-10-19T04:07:43.969Z,98373.67
2018-10-19T04:08:15.579Z,98375.38
2018-10-19T04:08:47.158Z,98365.31
2018-10-19T04:09:18.823Z,98377.09
2018-10-19T04:09:50.398Z,98376.66
2018-10-19T04:10:22.003Z,98377.08
2018-10-19T04:10:53.642Z,98376.66
2018-10-19T04:11:25.266Z,98343.32
2018-10-19T04:11:56.902Z,98368.14
2018-10-19T04:12:28.535Z,98376.23
2018-10-19T04:13:00.142Z,98372.88
2018-10-19T04:13:31.746Z,98377.57
2018-10-19T04:14:03.354Z,98379.32
2018-10-19T04:14:34.957Z,98378.89
2018-10-19T04:15:06.587Z,98379.75
2018-10-19T04:15:38.185Z,98376.34
2018-10-19T04:16:09.768Z,98377.58
2018-10-19T04:16:41.374Z,98352.75
2018-10-19T04:17:13.072Z,98384.77
2018-10-19T04:17:44.633Z,98383.06
2018-10-19T04:18:16.247Z,98384.77
2018-10-19T04:18:47.844Z,98381.78
2018-10-19T04:19:19.451Z,98351.47
2018-10-19T04:19:52.025Z,98383.09
2018-10-19T04:20:23.633Z,98381.39
2018-10-19T04:20:55.242Z,98379.69
2018-10-19T04:21:26.862Z,98384.81
2018-10-19T04:21:58.456Z,98383.96
2018-10-19T04:22:30.072Z,98382.69
2018-10-19T04:23:01.683Z,98388.66
2018-10-19T04:23:33.305Z,98388.66
2018-10-19T04:24:04.896Z,98380.56
2018-10-19T04:24:36.488Z,98385.67
2018-10-19T04:25:08.092Z,98390.36
2018-10-19T04:25:39.703Z,98380.17
2018-10-19T04:26:11.329Z,98386.57
2018-10-19T04:26:42.921Z,98387.00
2018-10-19T04:27:14.647Z,98389.98
2018-10-19T04:27:46.223Z,98392.97
2018-10-19T04:28:17.816Z,98395.53
2018-10-19T04:28:49.404Z,98393.83
2018-10-19T04:29:21.016Z,98392.97
2018-10-19T04:29:52.611Z,98389.99
2018-10-19T04:30:24.204Z,98398.05
2018-10-19T04:30:55.800Z,98390.36
2018-10-19T04:31:27.382Z,98390.80
2018-10-19T04:31:58.972Z,98395.91
2018-10-19T04:32:30.582Z,98395.05
2018-10-19T04:33:02.239Z,98391.63
2018-10-19T04:33:33.802Z,98394.62
2018-10-19T04:34:05.393Z,98394.20
2018-10-19T04:34:36.988Z,98392.06
2018-10-19T04:35:08.583Z,98398.03
2018-10-19T04:35:40.203Z,98395.90
2018-10-19T04:36:11.827Z,98391.21
2018-10-19T04:36:43.418Z,98400.16
2018-10-19T04:37:15.033Z,98395.91
2018-10-19T04:37:46.634Z,98391.64
2018-10-19T04:38:18.225Z,98394.20
2018-10-19T04:38:49.815Z,98365.59
2018-10-19T04:39:21.416Z,98391.65
2018-10-19T04:39:53.022Z,98392.97
2018-10-19T04:40:24.602Z,98394.67
2018-10-19T04:40:56.245Z,98392.53
2018-10-19T04:41:27.863Z,98393.39
2018-10-19T04:41:59.505Z,98395.95
2018-10-19T04:42:31.119Z,98396.38
2018-10-19T04:43:02.758Z,98395.95
2018-10-19T04:43:34.336Z,98396.38
2018-10-19T04:44:05.919Z,98394.25
2018-10-19T04:44:37.498Z,98392.12
2018-10-19T04:45:09.128Z,98391.70
2018-10-19T04:45:40.724Z,98389.56
2018-10-19T04:46:12.320Z,98395.52
2018-10-19T04:46:43.974Z,98392.55
2018-10-19T04:47:15.623Z,98398.94
2018-10-19T04:47:47.284Z,98398.52
2018-10-19T04:48:18.821Z,98395.10
2018-10-19T04:48:50.414Z,98394.67
2018-10-19T04:49:22.014Z,98396.38
2018-10-19T04:49:53.605Z,98388.28
2018-10-19T04:50:25.209Z,98390.42
2018-10-19T04:50:56.880Z,98391.27
2018-10-19T04:51:28.441Z,98392.12
2018-10-19T04:52:00.043Z,98393.41
2018-10-19T04:52:31.664Z,98396.38
2018-10-19T04:53:03.296Z,98390.80
2018-10-19T04:53:34.951Z,98394.62
2018-10-19T04:54:06.510Z,98395.90
2018-10-19T04:54:38.119Z,98395.47
2018-10-19T04:55:09.724Z,98395.90
2018-10-19T04:55:41.302Z,98397.98
2018-10-19T04:56:12.896Z,98396.32
2018-10-19T04:56:44.496Z,98392.06
2018-10-19T04:57:16.080Z,98398.45
2018-10-19T04:57:47.711Z,98394.20
2018-10-19T04:58:19.315Z,98392.49
2018-10-19T04:58:50.911Z,98395.48
2018-10-19T04:59:22.509Z,98398.89
2018-10-19T04:59:54.114Z,98397.61
2018-10-19T05:00:25.709Z,98396.77
2018-10-19T05:00:57.315Z,98395.48
2018-10-19T05:01:28.919Z,98398.05
2018-10-19T05:02:00.513Z,98393.41
2018-10-19T05:02:32.229Z,98398.05
2018-10-19T05:03:03.848Z,98398.94
2018-10-19T05:03:35.444Z,98401.49
2018-10-19T05:04:07.024Z,98401.49
2018-10-19T05:04:38.647Z,98399.33
2018-10-19T05:05:10.367Z,98399.79
2018-10-19T05:05:41.913Z,98403.62
2018-10-19T05:06:13.663Z,98398.05
2018-10-19T05:06:45.276Z,98397.23
2018-10-19T05:07:16.790Z,98403.20
2018-10-19T05:07:48.413Z,98369.45
2018-10-19T05:08:20.083Z,98398.52
2018-10-19T05:08:51.639Z,98401.06
2018-10-19T05:09:23.228Z,98396.80
2018-10-19T05:09:54.829Z,98395.95
2018-10-19T05:10:26.428Z,98392.97
2018-10-19T05:10:58.078Z,98405.77
2018-10-19T05:11:29.633Z,98400.23
2018-10-19T05:12:01.228Z,98405.39
2018-10-19T05:12:32.869Z,98407.52
2018-10-19T05:13:04.509Z,98404.55
2018-10-19T05:13:36.122Z,98401.99
2018-10-19T05:14:07.785Z,98403.70
2018-10-19T05:14:39.332Z,98404.59
2018-10-19T05:15:10.940Z,98405.83
2018-10-19T05:15:42.547Z,98406.72
2018-10-19T05:16:14.155Z,98404.59
2018-10-19T05:16:45.752Z,98406.30
2018-10-19T05:17:17.351Z,98399.90
2018-10-19T05:17:48.988Z,98406.68
2018-10-19T05:18:20.606Z,98399.84
2018-10-19T05:18:52.209Z,98405.34
2018-10-19T05:19:23.811Z,98406.62
2018-10-19T05:19:55.451Z,98409.18
2018-10-19T05:20:27.058Z,98409.18
2018-10-19T05:20:58.635Z,98377.55
2018-10-19T05:21:30.262Z,98410.03
2018-10-19T05:22:01.859Z,98407.91
2018-10-19T05:22:33.463Z,98405.77
2018-10-19T05:23:05.146Z,98405.29
2018-10-19T05:23:36.695Z,98402.72
2018-10-19T05:24:08.288Z,98411.62
2018-10-19T05:24:39.903Z,98406.08
2018-10-19T05:25:11.507Z,98409.88
2018-10-19T05:25:43.100Z,98411.58
2018-10-19T05:26:14.832Z,98414.13
2018-10-19T05:26:46.346Z,98412.00
2018-10-19T05:27:17.951Z,98413.28
2018-10-19T05:27:49.588Z,98416.69
2018-10-19T05:28:21.192Z,98409.88
2018-10-19T05:28:52.835Z,98428.63
2018-10-19T05:29:24.413Z,98413.70
2018-10-19T05:29:56.009Z,98413.28
2018-10-19T05:30:27.610Z,98413.70
2018-10-19T05:30:59.224Z,98412.03
2018-10-19T05:31:30.807Z,98418.39
2018-10-19T05:32:02.433Z,98415.84
2018-10-19T05:32:34.026Z,98417.97
2018-10-19T05:33:05.660Z,98415.87
2018-10-19T05:33:37.268Z,98419.72
2018-10-19T05:34:08.855Z,98417.59
2018-10-19T05:34:40.473Z,98419.30
2018-10-19T05:35:12.177Z,98415.89
2018-10-19T05:35:43.701Z,98420.59
2018-10-19T05:36:15.288Z,98422.28
2018-10-19T05:36:46.880Z,98423.56
2018-10-19T05:37:19.513Z,98419.73
2018-10-19T05:37:51.119Z,98427.41
2018-10-19T05:38:22.712Z,98426.55
2018-10-19T05:38:54.319Z,98425.70
2018-10-19T05:39:25.908Z,98421.48
2018-10-19T05:39:57.517Z,98430.00
2018-10-19T05:40:29.118Z,98427.88
2018-10-19T05:41:00.723Z,98424.42
2018-10-19T05:41:32.314Z,98426.98
2018-10-19T05:42:03.890Z,98424.47
2018-10-19T05:42:35.518Z,98430.44
2018-10-19T05:43:07.122Z,98427.45
2018-10-19T05:43:38.787Z,98430.03
2018-10-19T05:44:10.380Z,98434.22
2018-10-19T05:44:41.978Z,98433.80
2018-10-19T05:45:13.575Z,98437.64
2018-10-19T05:45:45.178Z,98454.70
2018-10-19T05:46:16.769Z,98432.52
2018-10-19T05:46:48.378Z,98434.66
2018-10-19T05:47:19.972Z,98437.68
2018-10-19T05:47:51.551Z,98441.52
2018-10-19T05:48:23.144Z,98433.84
2018-10-19T05:48:54.722Z,98437.26
2018-10-19T05:49:26.319Z,98436.84
2018-10-19T05:49:57.921Z,98434.70
2018-10-19T05:50:29.534Z,98441.95
2018-10-19T05:51:01.133Z,98435.55
2018-10-19T05:51:32.751Z,98438.12
2018-10-19T05:52:04.398Z,98442.39
2018-10-19T05:52:35.984Z,98436.03
2018-10-19T05:53:07.652Z,98434.33
2018-10-19T05:53:39.224Z,98445.41
2018-10-19T05:54:10.822Z,98439.44
2018-10-19T05:54:42.412Z,98439.87
2018-10-19T05:55:14.009Z,98448.34
2018-10-19T05:55:45.601Z,98441.48
2018-10-19T05:56:17.297Z,98440.20
2018-10-19T05:56:48.824Z,98444.50
2018-10-19T05:57:20.425Z,98446.59
2018-10-19T05:57:52.039Z,98447.02
2018-10-19T05:58:23.643Z,98429.27
2018-10-19T05:58:55.250Z,98445.73
2018-10-19T05:59:26.864Z,98443.61
2018-10-19T05:59:58.472Z,98444.45
2018-10-19T06:00:30.079Z,98448.29
2018-10-19T06:01:01.673Z,98440.20
2018-10-19T06:01:33.260Z,98439.39
2018-10-19T06:02:04.941Z,98450.00
2018-10-19T06:02:36.587Z,98443.23
2018-10-19T06:03:08.126Z,98444.94
2018-10-19T06:03:39.754Z,98440.66
2018-10-19T06:04:11.380Z,98447.92
2018-10-19T06:04:42.986Z,98446.21
2018-10-19T06:05:14.662Z,98445.79
2018-10-19T06:05:46.220Z,98449.62
2018-10-19T06:06:17.812Z,98446.64
2018-10-19T06:06:49.417Z,98449.20
2018-10-19T06:07:21.022Z,98444.09
2018-10-19T06:07:52.615Z,98441.14
2018-10-19T06:08:24.240Z,98446.27
2018-10-19T06:08:55.819Z,98443.70
2018-10-19T06:09:27.423Z,98450.10
2018-10-19T06:09:59.017Z,98446.27
2018-10-19T06:10:30.623Z,98447.08
2018-10-19T06:11:02.340Z,98453.90
2018-10-19T06:11:33.944Z,98448.78